Time;durP1;ratioP1;P1;durP2;ratioP2;P2;SDS_P1;SDS_P2;PMS_P1;PMS_P2;Temp;Humidity;BMP_temperature;BMP_pressure;BME280_temperature;BME280_humidity;BME280_pressure;Samples;Min_cycle;Max_cycle;Signal;HPM_P1;HPM_P2
2021/08/17 00:01:54;;;;;;;8.13;4.57;;;14.30;84.20;;;;;;5013549;28;20470;-83
2021/08/17 00:04:20;;;;;;;9.80;5.57;;;14.30;84.60;;;;;;4988135;28;20186;-83
2021/08/17 00:06:47;;;;;;;9.37;4.47;;;14.20;84.70;;;;;;5003753;28;20171;-84
2021/08/17 00:09:14;;;;;;;18.20;5.93;;;14.10;85.20;;;;;;5004181;28;20478;-84
2021/08/17 00:11:39;;;;;;;15.03;5.30;;;14.10;85.90;;;;;;5005274;28;20193;-83
2021/08/17 00:14:05;;;;;;;9.23;5.07;;;14.00;85.90;;;;;;5006536;28;20433;-83
2021/08/17 00:16:31;;;;;;;12.43;4.80;;;14.00;86.50;;;;;;5006554;28;20196;-83
2021/08/17 00:18:57;;;;;;;13.70;5.03;;;14.00;86.70;;;;;;5010085;28;20178;-83
2021/08/17 00:21:23;;;;;;;10.60;5.20;;;13.90;86.80;;;;;;5010540;28;20257;-82
2021/08/17 00:23:49;;;;;;;12.60;4.77;;;13.90;87.00;;;;;;5012135;28;20386;-85
2021/08/17 00:26:15;;;;;;;10.30;5.03;;;13.80;87.50;;;;;;5006203;28;20424;-82
2021/08/17 00:28:40;;;;;;;20.40;7.17;;;13.80;87.50;;;;;;5002701;28;20599;-82
2021/08/17 00:31:06;;;;;;;8.57;4.80;;;13.80;87.70;;;;;;5002451;28;20219;-83
2021/08/17 00:33:31;;;;;;;12.83;6.80;;;13.80;88.20;;;;;;5002957;28;20589;-83
2021/08/17 00:35:57;;;;;;;12.87;6.57;;;13.80;88.20;;;;;;5006333;28;20692;-83
2021/08/17 00:38:24;;;;;;;14.50;7.07;;;13.80;88.30;;;;;;5005358;28;20191;-83
2021/08/17 00:40:49;;;;;;;16.43;6.30;;;13.70;88.60;;;;;;5005791;28;20799;-83
2021/08/17 00:43:15;;;;;;;16.23;7.63;;;13.70;89.00;;;;;;5004464;28;20429;-83
2021/08/17 00:45:41;;;;;;;20.43;7.70;;;13.70;89.30;;;;;;5003915;28;20250;-83
2021/08/17 00:48:06;;;;;;;18.07;7.00;;;13.60;89.60;;;;;;5005812;28;20180;-83
2021/08/17 00:50:34;;;;;;;19.97;7.33;;;13.60;89.90;;;;;;5006053;28;20375;-83
2021/08/17 00:53:01;;;;;;;21.70;8.20;;;13.60;90.10;;;;;;5002732;28;20246;-84
2021/08/17 00:55:27;;;;;;;20.63;7.97;;;13.60;90.20;;;;;;5004946;28;20431;-82
2021/08/17 00:57:53;;;;;;;18.53;8.87;;;13.60;90.30;;;;;;5004833;28;20404;-84
2021/08/17 01:00:19;;;;;;;23.47;9.60;;;13.60;90.40;;;;;;4988480;28;20623;-83
2021/08/17 01:02:46;;;;;;;17.10;8.80;;;13.60;90.50;;;;;;5008587;28;20618;-83
2021/08/17 01:05:14;;;;;;;16.50;8.43;;;13.60;90.40;;;;;;5005933;28;20176;-84
2021/08/17 01:07:40;;;;;;;21.33;10.23;;;13.70;90.30;;;;;;5004354;28;20431;-84
2021/08/17 01:10:07;;;;;;;23.83;10.77;;;13.80;90.40;;;;;;5006580;28;20498;-83
2021/08/17 01:12:35;;;;;;;23.33;9.83;;;13.80;90.20;;;;;;4984538;28;20454;-82
2021/08/17 01:15:02;;;;;;;18.73;10.03;;;13.80;90.10;;;;;;5005504;28;20411;-83
2021/08/17 01:17:28;;;;;;;20.20;9.33;;;13.90;90.20;;;;;;5003282;28;20574;-83
2021/08/17 01:19:53;;;;;;;22.53;10.47;;;13.90;90.10;;;;;;5002967;28;20489;-81
2021/08/17 01:22:19;;;;;;;23.73;11.43;;;13.90;90.10;;;;;;5005021;28;20188;-84
2021/08/17 01:24:45;;;;;;;21.70;10.00;;;13.90;90.10;;;;;;5003547;28;20507;-82
2021/08/17 01:27:12;;;;;;;23.03;11.50;;;13.90;90.20;;;;;;5003790;28;20179;-84
2021/08/17 01:29:38;;;;;;;27.27;12.83;;;13.90;90.00;;;;;;5001351;28;20270;-83
2021/08/17 01:32:04;;;;;;;26.83;11.90;;;13.90;90.00;;;;;;5011872;28;20462;-82
2021/08/17 01:34:30;;;;;;;30.60;12.43;;;13.90;90.20;;;;;;5012777;28;20442;-84
2021/08/17 01:36:55;;;;;;;27.33;12.57;;;13.90;90.20;;;;;;5008386;28;21194;-84
2021/08/17 01:39:21;;;;;;;21.40;11.30;;;13.80;90.10;;;;;;5004290;28;20183;-82
2021/08/17 01:41:47;;;;;;;24.23;13.47;;;13.80;90.20;;;;;;5004852;28;20196;-82
2021/08/17 01:44:16;;;;;;;28.43;13.53;;;13.80;90.40;;;;;;5005822;28;20434;-82
2021/08/17 01:46:46;;;;;;;26.57;13.60;;;13.80;90.40;;;;;;5009761;28;20202;-82
2021/08/17 01:49:14;;;;;;;29.23;14.30;;;13.70;90.50;;;;;;4989904;28;20422;-83
2021/08/17 01:51:40;;;;;;;31.50;13.37;;;13.70;90.40;;;;;;4988725;28;20526;-82
2021/08/17 01:54:06;;;;;;;36.20;13.27;;;13.70;91.10;;;;;;5004383;28;20438;-82
2021/08/17 01:56:32;;;;;;;30.30;13.93;;;13.70;91.00;;;;;;5004962;28;20179;-82
2021/08/17 01:59:00;;;;;;;32.63;14.07;;;13.70;91.00;;;;;;5005662;28;20430;-83
2021/08/17 02:01:26;;;;;;;37.03;15.90;;;13.70;91.00;;;;;;5004197;28;20446;-82
2021/08/17 02:03:51;;;;;;;34.33;15.23;;;13.60;91.00;;;;;;5006319;28;20470;-82
2021/08/17 02:06:17;;;;;;;28.27;13.53;;;13.60;91.10;;;;;;5005955;28;20171;-83
2021/08/17 02:08:43;;;;;;;34.67;14.47;;;13.60;91.20;;;;;;5003464;28;20614;-83
2021/08/17 02:11:08;;;;;;;26.07;13.07;;;13.60;91.20;;;;;;5006061;28;20207;-83
2021/08/17 02:13:34;;;;;;;28.13;14.20;;;13.60;91.20;;;;;;5007204;28;20290;-82
2021/08/17 02:16:01;;;;;;;29.73;14.80;;;13.60;91.30;;;;;;5003996;28;20178;-83
2021/08/17 02:18:30;;;;;;;37.03;16.30;;;13.60;91.70;;;;;;5003142;28;20426;-82
2021/08/17 02:20:59;;;;;;;32.70;14.17;;;13.60;91.30;;;;;;5006030;28;20518;-83
2021/08/17 02:23:26;;;;;;;31.73;15.40;;;13.60;91.30;;;;;;4988646;28;20582;-83
2021/08/17 02:25:52;;;;;;;36.60;14.43;;;13.60;91.30;;;;;;5007210;28;20426;-83
2021/08/17 02:28:19;;;;;;;32.43;15.33;;;13.70;91.50;;;;;;5008163;28;20429;-84
2021/08/17 02:30:46;;;;;;;29.30;14.97;;;13.70;91.40;;;;;;5011445;28;20206;-83
2021/08/17 02:33:12;;;;;;;31.93;14.70;;;13.70;91.40;;;;;;5006104;28;20423;-83
2021/08/17 02:35:38;;;;;;;38.00;16.90;;;13.60;91.50;;;;;;5008701;28;20411;-82
2021/08/17 02:38:05;;;;;;;41.47;16.53;;;13.60;91.50;;;;;;5006418;28;20428;-83
2021/08/17 02:40:31;;;;;;;41.00;16.80;;;13.60;91.50;;;;;;5007873;28;20199;-84
2021/08/17 02:42:57;;;;;;;38.60;16.27;;;13.60;91.60;;;;;;4992844;28;20434;-83
2021/08/17 02:45:23;;;;;;;33.70;15.97;;;13.60;91.70;;;;;;4986971;28;20431;-81
2021/08/17 02:47:48;;;;;;;43.47;16.17;;;13.60;91.90;;;;;;4992074;28;20184;-84
2021/08/17 02:50:14;;;;;;;42.07;18.23;;;13.60;92.00;;;;;;5006360;28;20191;-83
2021/08/17 02:52:40;;;;;;;34.47;16.53;;;13.60;91.90;;;;;;5006111;28;20203;-83
2021/08/17 02:55:07;;;;;;;35.40;16.30;;;13.60;91.90;;;;;;5003555;28;20172;-83
2021/08/17 02:57:33;;;;;;;45.87;18.50;;;13.60;91.80;;;;;;5006628;28;20160;-84
2021/08/17 02:59:58;;;;;;;37.20;16.93;;;13.60;91.90;;;;;;5007178;28;20734;-83
2021/08/17 03:02:24;;;;;;;36.87;16.37;;;13.70;91.80;;;;;;5008158;28;20189;-83
2021/08/17 03:04:50;;;;;;;34.47;16.10;;;13.70;91.70;;;;;;5007243;28;20262;-83
2021/08/17 03:07:15;;;;;;;40.07;17.00;;;13.70;91.60;;;;;;5007156;28;20168;-84
2021/08/17 03:09:41;;;;;;;37.33;16.07;;;13.70;91.50;;;;;;5005829;28;20204;-83
2021/08/17 03:12:07;;;;;;;35.23;17.27;;;13.70;91.50;;;;;;5007432;28;20200;-84
2021/08/17 03:14:33;;;;;;;45.30;16.20;;;13.70;91.50;;;;;;5007407;28;20171;-83
2021/08/17 03:16:58;;;;;;;35.57;17.67;;;13.70;91.50;;;;;;5007198;28;20434;-85
2021/08/17 03:19:24;;;;;;;37.50;16.03;;;13.70;91.60;;;;;;5004966;28;20707;-82
2021/08/17 03:21:49;;;;;;;37.70;17.00;;;13.60;91.50;;;;;;5007247;28;20191;-84
2021/08/17 03:24:15;;;;;;;33.67;16.60;;;13.60;91.70;;;;;;5005700;28;20231;-83
2021/08/17 03:26:41;;;;;;;39.67;17.10;;;13.60;91.70;;;;;;5008207;28;20191;-83
2021/08/17 03:29:07;;;;;;;43.07;18.33;;;13.60;91.60;;;;;;5006669;28;20522;-84
2021/08/17 03:31:32;;;;;;;30.83;15.10;;;13.70;91.50;;;;;;5007569;28;20207;-83
2021/08/17 03:33:58;;;;;;;35.90;17.53;;;13.60;91.50;;;;;;5005855;28;20175;-83
2021/08/17 03:36:23;;;;;;;40.60;16.97;;;13.70;91.60;;;;;;5006966;28;20179;-83
2021/08/17 03:38:49;;;;;;;40.53;17.60;;;13.60;91.50;;;;;;5007736;28;20164;-83
2021/08/17 03:41:15;;;;;;;34.50;16.53;;;13.60;91.40;;;;;;5006769;28;20196;-83
2021/08/17 03:43:41;;;;;;;28.60;16.67;;;13.60;91.50;;;;;;5006771;28;20172;-83
2021/08/17 03:46:06;;;;;;;32.70;16.47;;;13.60;91.50;;;;;;5006693;28;20441;-83
2021/08/17 03:48:33;;;;;;;33.80;17.00;;;13.60;91.60;;;;;;5008983;28;20179;-83
2021/08/17 03:50:59;;;;;;;38.90;16.97;;;13.50;91.60;;;;;;5007396;28;20195;-82
2021/08/17 03:53:26;;;;;;;33.53;16.90;;;13.50;91.70;;;;;;5009635;28;20842;-83
2021/08/17 03:55:52;;;;;;;32.43;17.93;;;13.50;91.60;;;;;;5012530;28;20414;-83
2021/08/17 03:58:18;;;;;;;35.60;16.80;;;13.50;91.70;;;;;;5011221;28;20410;-82
2021/08/17 04:00:43;;;;;;;39.07;15.83;;;13.40;91.80;;;;;;5011723;28;20247;-83
2021/08/17 04:03:09;;;;;;;38.80;16.47;;;13.40;91.90;;;;;;5012685;28;20184;-82
2021/08/17 04:05:35;;;;;;;39.97;15.90;;;13.30;91.90;;;;;;5010880;28;20228;-83
2021/08/17 04:08:02;;;;;;;36.00;17.40;;;13.30;92.20;;;;;;5012424;28;20171;-82
2021/08/17 04:10:28;;;;;;;40.33;18.33;;;13.30;92.30;;;;;;5007816;28;20212;-82
2021/08/17 04:12:53;;;;;;;40.37;17.47;;;13.30;92.30;;;;;;5005503;28;20500;-83
2021/08/17 04:15:19;;;;;;;36.20;15.83;;;13.30;92.40;;;;;;5005266;28;20183;-82
2021/08/17 04:17:44;;;;;;;39.67;14.80;;;13.30;92.40;;;;;;5005834;28;20156;-83
2021/08/17 04:20:13;;;;;;;34.17;17.20;;;13.20;92.30;;;;;;5004929;28;20654;-82
2021/08/17 04:22:39;;;;;;;51.93;19.23;;;13.20;92.20;;;;;;5004939;28;20199;-82
2021/08/17 04:25:05;;;;;;;33.60;13.87;;;13.30;92.30;;;;;;5006509;28;20422;-82
2021/08/17 04:27:31;;;;;;;33.30;14.93;;;13.30;92.40;;;;;;5006020;28;20610;-83
2021/08/17 04:29:57;;;;;;;35.13;16.33;;;13.40;92.30;;;;;;5006047;28;20518;-82
2021/08/17 04:32:23;;;;;;;35.10;15.57;;;13.40;92.20;;;;;;5004374;28;20187;-83
2021/08/17 04:34:48;;;;;;;35.70;16.57;;;13.40;92.20;;;;;;5010036;28;20164;-82
2021/08/17 04:37:14;;;;;;;32.47;14.57;;;13.50;92.20;;;;;;5010600;28;20168;-82
2021/08/17 04:39:41;;;;;;;30.03;13.83;;;13.60;91.90;;;;;;5008334;28;20685;-83
2021/08/17 04:42:07;;;;;;;30.50;14.87;;;13.60;91.80;;;;;;5004142;28;20535;-83
2021/08/17 04:44:33;;;;;;;32.13;14.73;;;13.70;91.80;;;;;;5005586;28;20523;-82
2021/08/17 04:46:59;;;;;;;27.20;13.30;;;13.70;91.60;;;;;;5005772;28;20871;-83
2021/08/17 04:49:25;;;;;;;31.03;13.97;;;13.70;91.50;;;;;;5005495;28;20423;-82
2021/08/17 04:51:51;;;;;;;27.63;13.40;;;13.80;91.40;;;;;;5001687;28;21304;-83
2021/08/17 04:54:17;;;;;;;31.53;13.97;;;13.80;91.30;;;;;;5004775;28;20435;-83
2021/08/17 04:56:42;;;;;;;30.60;14.43;;;13.90;91.20;;;;;;5003424;28;20172;-84
2021/08/17 04:59:08;;;;;;;32.63;14.83;;;13.90;91.10;;;;;;5000249;28;20176;-83
2021/08/17 05:01:34;;;;;;;40.60;14.50;;;13.90;91.00;;;;;;5003489;28;20208;-83
2021/08/17 05:04:02;;;;;;;31.10;14.43;;;13.90;90.90;;;;;;5003528;28;20392;-83
2021/08/17 05:06:27;;;;;;;35.47;14.27;;;13.90;90.70;;;;;;4998587;28;20180;-82
2021/08/17 05:08:53;;;;;;;36.30;14.07;;;13.90;90.90;;;;;;5001001;28;20510;-83
2021/08/17 05:11:18;;;;;;;35.67;14.83;;;13.80;90.90;;;;;;5003774;28;20255;-83
2021/08/17 05:13:44;;;;;;;33.73;14.67;;;13.80;90.90;;;;;;5014984;28;20243;-84
2021/08/17 05:16:11;;;;;;;32.80;14.00;;;13.90;91.00;;;;;;5016359;28;20212;-83
2021/08/17 05:18:37;;;;;;;32.73;14.00;;;13.90;91.00;;;;;;5008846;28;20171;-84
2021/08/17 05:21:03;;;;;;;34.20;15.37;;;14.00;90.80;;;;;;5003739;28;20453;-84
2021/08/17 05:23:29;;;;;;;35.83;15.23;;;14.00;90.60;;;;;;5005230;28;20435;-87
2021/08/17 05:25:55;;;;;;;32.50;14.53;;;14.10;90.70;;;;;;5000883;28;20179;-84
2021/08/17 05:28:22;;;;;;;30.93;14.70;;;14.10;90.30;;;;;;4996847;28;20428;-84
2021/08/17 05:30:48;;;;;;;26.87;12.37;;;14.20;90.40;;;;;;4993470;28;20451;-83
2021/08/17 05:33:14;;;;;;;28.83;14.27;;;14.20;90.30;;;;;;5005012;28;20407;-83
2021/08/17 05:35:42;;;;;;;27.97;15.20;;;14.30;90.20;;;;;;5003879;28;20422;-83
2021/08/17 05:38:08;;;;;;;30.37;14.77;;;14.30;89.90;;;;;;5003430;28;20168;-84
2021/08/17 05:40:34;;;;;;;30.80;13.57;;;14.30;89.60;;;;;;5004021;28;20505;-84
2021/08/17 05:43:00;;;;;;;34.77;14.47;;;14.30;89.70;;;;;;5004988;28;20191;-83
2021/08/17 05:45:25;;;;;;;25.57;14.20;;;14.30;89.90;;;;;;5003747;28;20167;-84
2021/08/17 05:47:51;;;;;;;34.27;15.50;;;14.30;90.00;;;;;;5001214;28;20250;-85
2021/08/17 05:50:17;;;;;;;41.83;15.07;;;14.40;90.00;;;;;;4999525;28;20209;-83
2021/08/17 05:52:44;;;;;;;33.70;14.23;;;14.40;89.90;;;;;;5029908;23;20781;-75
2021/08/17 05:55:11;;;;;;;31.03;15.80;;;14.40;89.70;;;;;;5001481;28;20431;-75
2021/08/17 05:57:37;;;;;;;29.87;13.27;;;14.40;89.60;;;;;;4986438;28;20458;-75
2021/08/17 06:00:10;;;;;;;28.07;12.50;;;14.50;90.20;;;;;;4980364;28;20987;-74
2021/08/17 06:02:39;;;;;;;31.70;16.13;;;14.50;89.80;;;;;;4971714;28;20458;-76
2021/08/17 06:05:05;;;;;;;32.93;14.87;;;14.60;89.90;;;;;;4986527;28;20478;-73
2021/08/17 06:07:31;;;;;;;33.93;14.80;;;14.70;89.50;;;;;;4979512;28;20433;-73
2021/08/17 06:09:56;;;;;;;30.67;15.30;;;14.80;89.10;;;;;;4977207;28;20416;-74
2021/08/17 06:12:22;;;;;;;32.27;16.80;;;14.90;88.70;;;;;;4993845;28;20187;-75
2021/08/17 06:14:48;;;;;;;36.80;14.83;;;15.00;88.40;;;;;;4994152;28;20175;-74
2021/08/17 06:17:13;;;;;;;36.33;15.17;;;15.20;88.40;;;;;;4978566;28;20183;-75
2021/08/17 06:19:39;;;;;;;29.73;13.80;;;15.30;87.80;;;;;;4984626;28;20537;-74
2021/08/17 06:22:05;;;;;;;32.33;15.17;;;15.50;86.70;;;;;;4995671;28;20192;-74
2021/08/17 06:24:30;;;;;;;27.83;13.50;;;15.60;87.00;;;;;;4996735;28;20183;-75
2021/08/17 06:26:56;;;;;;;28.93;14.17;;;15.70;86.20;;;;;;4977362;28;20194;-73
2021/08/17 06:29:22;;;;;;;50.00;16.73;;;15.80;85.80;;;;;;4975697;28;20271;-73
2021/08/17 06:31:49;;;;;;;35.90;15.23;;;15.90;84.40;;;;;;4975054;28;20207;-75
2021/08/17 06:34:14;;;;;;;35.93;14.57;;;15.90;84.50;;;;;;4986603;28;20180;-75
2021/08/17 06:36:40;;;;;;;30.87;14.30;;;16.00;85.00;;;;;;4992910;28;20440;-76
2021/08/17 06:39:07;;;;;;;40.77;17.50;;;16.10;85.20;;;;;;4989716;28;20563;-75
2021/08/17 06:41:33;;;;;;;31.33;14.53;;;16.20;84.40;;;;;;4957795;28;20467;-75
2021/08/17 06:44:01;;;;;;;32.77;14.40;;;16.40;83.90;;;;;;4974425;28;20443;-76
2021/08/17 06:46:27;;;;;;;33.73;14.37;;;16.60;83.30;;;;;;4982576;28;20467;-75
2021/08/17 06:48:54;;;;;;;30.30;14.93;;;16.70;82.10;;;;;;4974059;28;20428;-75
2021/08/17 06:51:19;;;;;;;30.70;14.30;;;16.80;81.20;;;;;;4986254;28;20477;-74
2021/08/17 06:53:45;;;;;;;31.57;16.10;;;17.00;81.70;;;;;;4993273;28;20432;-75
2021/08/17 06:56:11;;;;;;;29.73;13.53;;;17.20;80.30;;;;;;4994144;28;20192;-75
2021/08/17 06:58:38;;;;;;;30.40;14.73;;;17.40;80.10;;;;;;4986824;28;20210;-76
2021/08/17 07:01:03;;;;;;;27.93;13.83;;;17.70;78.00;;;;;;4991161;28;20518;-75
2021/08/17 07:03:30;;;;;;;30.87;14.50;;;17.80;77.40;;;;;;4990595;28;20183;-75
2021/08/17 07:05:55;;;;;;;30.13;13.13;;;18.00;75.90;;;;;;4991647;28;20549;-75
2021/08/17 07:08:21;;;;;;;28.43;14.40;;;18.10;74.90;;;;;;4973846;28;20415;-75
2021/08/17 07:10:48;;;;;;;24.83;13.90;;;18.00;75.70;;;;;;4972994;28;20201;-75
2021/08/17 07:13:14;;;;;;;35.70;14.07;;;18.00;75.70;;;;;;4974137;28;20670;-75
2021/08/17 07:15:40;;;;;;;30.03;13.50;;;18.00;75.60;;;;;;4974299;28;20435;-75
2021/08/17 07:18:06;;;;;;;19.73;12.10;;;18.00;75.00;;;;;;5001568;28;20172;-75
2021/08/17 07:20:32;;;;;;;29.50;14.80;;;17.80;75.60;;;;;;4998031;28;20438;-75
2021/08/17 07:22:57;;;;;;;25.10;13.47;;;17.70;76.30;;;;;;4985252;28;20188;-75
2021/08/17 07:25:23;;;;;;;24.10;12.53;;;17.70;77.50;;;;;;4987356;28;20178;-74
2021/08/17 07:27:49;;;;;;;28.83;12.93;;;17.60;77.20;;;;;;4976431;28;20554;-75
2021/08/17 07:30:15;;;;;;;32.90;15.50;;;17.60;77.20;;;;;;4976603;28;20661;-76
2021/08/17 07:32:42;;;;;;;33.17;13.57;;;17.70;77.30;;;;;;4981336;28;20654;-76
2021/08/17 07:35:10;;;;;;;25.53;13.20;;;17.80;77.60;;;;;;4989658;28;20173;-74
2021/08/17 07:37:37;;;;;;;25.60;12.53;;;18.10;77.70;;;;;;4993489;28;20454;-76
2021/08/17 07:40:04;;;;;;;27.30;14.20;;;18.30;75.30;;;;;;4992408;28;20495;-75
2021/08/17 07:42:30;;;;;;;28.90;14.30;;;18.50;74.20;;;;;;4986230;28;20563;-75
2021/08/17 07:44:55;;;;;;;24.63;13.10;;;18.60;72.70;;;;;;4974892;28;20921;-75
2021/08/17 07:47:21;;;;;;;22.77;12.13;;;18.50;72.70;;;;;;4992316;28;20780;-76
2021/08/17 07:49:47;;;;;;;34.57;14.90;;;18.50;74.70;;;;;;4993208;28;20228;-76
2021/08/17 07:52:12;;;;;;;31.77;14.60;;;18.40;73.60;;;;;;4992046;28;20295;-75
2021/08/17 07:54:38;;;;;;;27.73;13.73;;;18.30;73.20;;;;;;4991210;28;20181;-76
2021/08/17 07:57:04;;;;;;;32.00;13.73;;;18.10;73.70;;;;;;4983561;28;20173;-74
2021/08/17 07:59:30;;;;;;;29.50;14.10;;;18.00;74.10;;;;;;4978145;28;20164;-74
2021/08/17 08:01:55;;;;;;;25.57;13.03;;;17.90;75.40;;;;;;4993509;28;20441;-74
2021/08/17 08:04:21;;;;;;;35.77;13.73;;;17.90;75.20;;;;;;4993681;28;20592;-74
2021/08/17 08:06:47;;;;;;;31.73;15.23;;;18.00;75.80;;;;;;4989971;28;20224;-75
2021/08/17 08:09:12;;;;;;;27.27;13.20;;;18.10;75.70;;;;;;4992623;28;20173;-75
2021/08/17 08:11:38;;;;;;;27.37;13.07;;;18.50;74.10;;;;;;4993199;28;20324;-76
2021/08/17 08:14:04;;;;;;;21.33;11.40;;;18.80;75.40;;;;;;4991387;28;20175;-76
2021/08/17 08:16:30;;;;;;;27.73;12.70;;;19.50;72.30;;;;;;4983822;28;20226;-76
2021/08/17 08:18:55;;;;;;;29.37;14.83;;;20.10;69.20;;;;;;4974634;28;20175;-76
2021/08/17 08:21:21;;;;;;;26.60;13.93;;;20.60;66.60;;;;;;4991227;28;20195;-76
2021/08/17 08:23:46;;;;;;;23.57;13.40;;;21.00;62.40;;;;;;4975014;28;20180;-76
2021/08/17 08:26:12;;;;;;;24.63;12.40;;;21.20;62.30;;;;;;4979392;28;20184;-76
2021/08/17 08:28:38;;;;;;;23.10;12.60;;;21.20;61.10;;;;;;5001465;28;20172;-76
2021/08/17 08:31:03;;;;;;;25.80;13.43;;;21.10;61.80;;;;;;4984230;28;20305;-76
2021/08/17 08:33:29;;;;;;;18.47;11.80;;;20.90;62.40;;;;;;4988251;28;20669;-76
2021/08/17 08:35:55;;;;;;;21.20;12.10;;;20.80;61.70;;;;;;4975303;28;20172;-76
2021/08/17 08:38:21;;;;;;;24.27;12.10;;;20.50;61.80;;;;;;4977329;28;20255;-74
2021/08/17 08:40:49;;;;;;;24.13;12.77;;;20.20;63.10;;;;;;4969161;28;20435;-75
2021/08/17 08:43:20;;;;;;;21.23;12.83;;;19.90;63.60;;;;;;4985300;28;20215;-76
2021/08/17 08:45:47;;;;;;;25.50;11.40;;;19.80;65.00;;;;;;4991102;28;20960;-75
2021/08/17 08:48:17;;;;;;;18.63;11.47;;;20.00;64.90;;;;;;4988880;28;20430;-75
2021/08/17 08:50:44;;;;;;;19.73;11.60;;;20.10;65.20;;;;;;4974259;28;20454;-75
2021/08/17 08:53:11;;;;;;;24.83;12.63;;;20.60;63.60;;;;;;4976145;28;20819;-76
2021/08/17 08:55:37;;;;;;;18.03;11.20;;;21.10;61.70;;;;;;4972523;28;20835;-75
2021/08/17 08:58:03;;;;;;;22.43;12.13;;;21.50;59.50;;;;;;4973711;28;20412;-75
2021/08/17 09:00:29;;;;;;;16.80;10.67;;;21.40;59.90;;;;;;4982820;28;20698;-76
2021/08/17 09:02:54;;;;;;;20.53;11.20;;;21.60;59.40;;;;;;4992415;28;20526;-75
2021/08/17 09:05:21;;;;;;;28.80;11.67;;;21.60;59.10;;;;;;5002767;28;20245;-75
2021/08/17 09:07:48;;;;;;;17.67;10.57;;;21.40;58.90;;;;;;4997716;28;20597;-75
2021/08/17 09:10:22;;;;;;;16.97;9.83;;;21.20;58.40;;;;;;5001412;28;20430;-75
2021/08/17 09:12:54;;;;;;;18.50;11.00;;;21.00;59.10;;;;;;4981323;28;20456;-76
2021/08/17 09:15:21;;;;;;;21.67;10.20;;;21.00;59.40;;;;;;4993383;28;20424;-75
2021/08/17 09:18:05;;;;;;;18.67;11.57;;;21.00;59.50;;;;;;4988470;28;20481;-76
2021/08/17 09:20:44;;;;;;;19.07;9.63;;;21.00;58.20;;;;;;4990441;28;20509;-75
2021/08/17 09:23:22;;;;;;;22.73;12.60;;;20.80;59.30;;;;;;4989663;28;20518;-75
2021/08/17 09:25:49;;;;;;;28.20;11.50;;;20.90;58.90;;;;;;4998171;28;20422;-76
2021/08/17 09:28:27;;;;;;;20.37;11.40;;;21.00;59.00;;;;;;4986932;28;20439;-76
2021/08/17 09:30:53;;;;;;;18.73;12.07;;;21.00;58.40;;;;;;4971897;28;20517;-76
2021/08/17 09:33:19;;;;;;;28.57;12.30;;;20.90;59.10;;;;;;4972826;28;20910;-76
2021/08/17 09:35:44;;;;;;;46.73;27.27;;;20.90;59.30;;;;;;4971951;28;20231;-76
2021/08/17 09:38:13;;;;;;;21.57;12.33;;;20.70;59.30;;;;;;4969539;28;20224;-76
2021/08/17 09:40:41;;;;;;;25.43;12.47;;;20.60;59.40;;;;;;4970879;28;20176;-74
2021/08/17 09:43:23;;;;;;;17.80;11.20;;;20.40;59.40;;;;;;4972383;28;20477;-77
2021/08/17 09:45:49;;;;;;;17.37;10.57;;;20.20;58.80;;;;;;4973597;28;20423;-74
2021/08/17 09:48:30;;;;;;;18.43;11.43;;;20.10;59.00;;;;;;4970628;28;20430;-76
2021/08/17 09:50:56;;;;;;;16.70;10.60;;;20.20;59.70;;;;;;4991031;28;20453;-76
2021/08/17 09:53:23;;;;;;;22.83;11.30;;;20.20;59.00;;;;;;4999824;28;20972;-75
2021/08/17 09:55:52;;;;;;;22.87;11.50;;;20.20;59.20;;;;;;4984741;28;20522;-76
2021/08/17 09:58:19;;;;;;;21.30;11.70;;;19.90;59.40;;;;;;4999703;28;20457;-75
2021/08/17 10:00:46;;;;;;;22.90;12.17;;;19.70;59.60;;;;;;4997423;28;20450;-75
2021/08/17 10:03:18;;;;;;;19.43;11.03;;;19.40;59.50;;;;;;4986256;28;20553;-76
2021/08/17 10:05:45;;;;;;;18.07;11.80;;;19.50;60.60;;;;;;5004891;28;20418;-75
2021/08/17 10:08:12;;;;;;;23.30;11.60;;;19.40;59.40;;;;;;5008485;28;20394;-76
2021/08/17 10:10:42;;;;;;;17.07;10.50;;;19.40;60.00;;;;;;4997366;28;20520;-75
2021/08/17 10:13:11;;;;;;;16.87;9.70;;;19.60;61.00;;;;;;4979665;28;20450;-75
2021/08/17 10:15:37;;;;;;;19.60;10.80;;;19.80;60.20;;;;;;4994600;28;20423;-75
2021/08/17 10:18:04;;;;;;;16.00;10.53;;;19.80;58.90;;;;;;4970368;28;20507;-76
2021/08/17 10:20:31;;;;;;;23.53;10.70;;;19.70;59.20;;;;;;4970423;28;20448;-74
2021/08/17 10:22:57;;;;;;;16.93;10.40;;;19.60;58.90;;;;;;4986716;28;20596;-75
2021/08/17 10:25:23;;;;;;;17.87;11.47;;;19.60;60.10;;;;;;4989322;28;20432;-76
2021/08/17 10:27:49;;;;;;;22.93;12.00;;;19.50;60.50;;;;;;4991400;28;20407;-75
2021/08/17 10:30:25;;;;;;;16.93;10.17;;;19.50;60.80;;;;;;4993580;28;20251;-77
2021/08/17 10:33:00;;;;;;;20.30;10.90;;;19.50;60.40;;;;;;5005222;28;20946;-77
2021/08/17 10:35:33;;;;;;;17.20;11.00;;;19.50;61.40;;;;;;4954640;28;20427;-76
2021/08/17 10:38:07;;;;;;;35.97;18.47;;;19.70;60.00;;;;;;4971467;28;20925;-75
2021/08/17 10:41:07;;;;;;;20.23;11.00;;;19.80;59.40;;;;;;4974195;28;20489;-76
2021/08/17 10:43:33;;;;;;;21.93;12.03;;;19.90;59.10;;;;;;4954011;28;20916;-75
2021/08/17 10:46:09;;;;;;;20.80;11.47;;;20.00;58.80;;;;;;4987759;28;20438;-76
2021/08/17 10:48:49;;;;;;;20.73;9.70;;;20.00;59.70;;;;;;4973359;28;20180;-76
2021/08/17 10:51:18;;;;;;;18.73;10.57;;;20.10;58.50;;;;;;4977471;28;20469;-76
2021/08/17 10:53:48;;;;;;;16.40;10.13;;;20.20;58.70;;;;;;5002763;28;20430;-77
2021/08/17 10:56:41;;;;;;;20.67;11.33;;;20.30;58.20;;;;;;4986790;28;20411;-76
2021/08/17 10:59:07;;;;;;;18.53;10.87;;;20.30;57.90;;;;;;4971772;28;21001;-75
2021/08/17 11:01:42;;;;;;;19.00;10.10;;;20.10;58.30;;;;;;4994300;28;20503;-75
2021/08/17 11:04:20;;;;;;;21.47;12.33;;;19.90;58.60;;;;;;4992795;28;20429;-74
2021/08/17 11:06:49;;;;;;;19.33;10.43;;;19.60;59.10;;;;;;5009544;28;20430;-74
2021/08/17 11:09:30;;;;;;;21.17;11.80;;;19.50;59.60;;;;;;5013035;28;20417;-75
2021/08/17 11:12:03;;;;;;;22.07;12.07;;;19.40;58.60;;;;;;5011634;28;20571;-76
2021/08/17 11:14:38;;;;;;;20.37;10.43;;;19.30;59.30;;;;;;5014397;28;20939;-76
2021/08/17 11:17:12;;;;;;;18.93;10.90;;;19.30;59.30;;;;;;5012399;28;20409;-74
2021/08/17 11:19:46;;;;;;;18.80;11.20;;;19.30;58.80;;;;;;5012636;28;20896;-75
2021/08/17 11:22:15;;;;;;;23.67;12.20;;;19.30;59.30;;;;;;5013232;28;20494;-75
2021/08/17 11:24:51;;;;;;;18.77;10.27;;;19.30;59.50;;;;;;5013383;28;20434;-75
2021/08/17 11:27:20;;;;;;;24.87;11.53;;;19.20;59.10;;;;;;5009422;28;20519;-74
2021/08/17 11:29:56;;;;;;;15.47;9.30;;;19.20;59.60;;;;;;4977326;28;20761;-75
2021/08/17 11:32:39;;;;;;;16.67;9.40;;;19.00;58.80;;;;;;5004040;28;20518;-76
2021/08/17 11:35:14;;;;;;;20.90;9.70;;;18.80;59.50;;;;;;5015329;28;20449;-77
2021/08/17 11:37:43;;;;;;;19.03;10.63;;;18.60;60.50;;;;;;5000566;28;20423;-77
2021/08/17 11:40:11;;;;;;;26.63;12.50;;;18.50;60.70;;;;;;4998641;28;20570;-77
2021/08/17 11:42:40;;;;;;;28.93;18.47;;;18.40;61.30;;;;;;4997017;28;20453;-77
2021/08/17 11:45:11;;;;;;;16.70;10.00;;;18.40;61.70;;;;;;5003154;28;20434;-77
2021/08/17 11:47:39;;;;;;;17.27;9.80;;;18.40;61.90;;;;;;5013046;28;20757;-77
2021/08/17 11:50:08;;;;;;;20.80;9.60;;;18.30;62.30;;;;;;5004696;28;20430;-78
2021/08/17 11:52:39;;;;;;;18.37;10.13;;;18.30;62.40;;;;;;5007763;28;20517;-77
2021/08/17 11:55:09;;;;;;;15.43;8.90;;;18.30;62.20;;;;;;5032888;28;20417;-77
2021/08/17 11:57:38;;;;;;;14.73;8.13;;;18.30;62.70;;;;;;5013070;28;20430;-78
2021/08/17 12:00:10;;;;;;;18.70;8.90;;;18.30;62.50;;;;;;5001599;28;20428;-78
2021/08/17 12:02:37;;;;;;;15.77;9.10;;;18.30;63.40;;;;;;4996640;28;20434;-78
2021/08/17 12:05:06;;;;;;;14.67;7.67;;;18.30;62.60;;;;;;5018006;28;20942;-78
2021/08/17 12:07:33;;;;;;;16.83;9.00;;;18.40;62.80;;;;;;5010577;28;20486;-77
2021/08/17 12:10:08;;;;;;;14.23;9.03;;;18.40;62.00;;;;;;5012952;28;20711;-77
2021/08/17 12:13:02;;;;;;;16.90;9.37;;;18.40;62.00;;;;;;4997891;28;20439;-77
2021/08/17 12:15:50;;;;;;;15.30;9.13;;;18.40;62.40;;;;;;5001718;28;20445;-77
2021/08/17 12:18:15;;;;;;;23.03;9.50;;;18.50;61.40;;;;;;4996410;28;20403;-77
2021/08/17 12:20:56;;;;;;;12.43;7.90;;;18.40;62.10;;;;;;4999627;28;20863;-77
2021/08/17 12:23:34;;;;;;;16.07;9.70;;;18.40;61.60;;;;;;4999759;28;20986;-77
2021/08/17 12:26:18;;;;;;;13.73;8.13;;;18.30;62.20;;;;;;5028165;28;20483;-77
2021/08/17 12:28:47;;;;;;;14.90;6.73;;;18.30;61.20;;;;;;5015211;28;20402;-77
2021/08/17 12:31:18;;;;;;;16.33;9.00;;;18.20;61.90;;;;;;5012826;28;20601;-77